createdAt,value
2018-09-06T00:01:11.210Z,2.57
2018-09-06T00:03:39.877Z,2.33
2018-09-06T00:06:08.561Z,2.53
2018-09-06T00:08:37.352Z,2.37
2018-09-06T00:11:06.036Z,2.10
2018-09-06T00:13:34.758Z,2.60
2018-09-06T00:16:03.431Z,2.50
2018-09-06T00:18:32.118Z,2.93
2018-09-06T00:21:00.761Z,2.27
2018-09-06T00:23:29.516Z,2.50
2018-09-06T00:25:58.236Z,2.47
2018-09-06T00:28:26.910Z,2.30
2018-09-06T00:30:55.623Z,2.47
2018-09-06T00:33:24.279Z,2.40
2018-09-06T00:35:52.980Z,2.33
2018-09-06T00:38:21.692Z,2.50
2018-09-06T00:40:50.432Z,2.37
2018-09-06T00:43:19.160Z,2.53
2018-09-06T00:45:47.879Z,2.43
2018-09-06T00:48:16.593Z,2.50
2018-09-06T00:50:45.354Z,2.53
2018-09-06T00:53:14.096Z,2.37
2018-09-06T00:55:42.796Z,2.23
2018-09-06T00:58:11.496Z,2.30
2018-09-06T01:00:40.252Z,2.17
2018-09-06T01:03:08.959Z,2.20
2018-09-06T01:05:37.727Z,2.57
2018-09-06T01:08:06.460Z,2.40
2018-09-06T01:10:35.204Z,2.33
2018-09-06T01:13:03.897Z,2.43
2018-09-06T01:15:32.619Z,2.40
2018-09-06T01:18:01.374Z,2.33
2018-09-06T01:20:30.141Z,2.23
2018-09-06T01:22:58.793Z,2.20
2018-09-06T01:25:31.614Z,2.17
2018-09-06T01:28:00.304Z,2.73
2018-09-06T01:30:29.058Z,2.10
2018-09-06T01:32:57.715Z,2.20
2018-09-06T01:35:26.406Z,2.10
2018-09-06T01:37:55.124Z,2.17
2018-09-06T01:40:23.868Z,2.33
2018-09-06T01:42:52.542Z,2.30
2018-09-06T01:45:21.234Z,2.43
2018-09-06T01:47:49.943Z,2.23
2018-09-06T01:50:18.625Z,2.30
2018-09-06T01:52:47.368Z,2.20
2018-09-06T01:55:16.057Z,2.30
2018-09-06T01:57:44.731Z,2.50
2018-09-06T02:00:13.407Z,2.10
2018-09-06T02:02:42.082Z,2.53
2018-09-06T02:05:10.872Z,2.10
2018-09-06T02:07:39.558Z,2.33
2018-09-06T02:10:08.251Z,1.83
2018-09-06T02:12:36.946Z,2.20
2018-09-06T02:15:05.651Z,2.03
2018-09-06T02:17:34.392Z,2.10
2018-09-06T02:20:03.093Z,1.93
2018-09-06T02:22:31.805Z,1.90
2018-09-06T02:25:00.532Z,2.30
2018-09-06T02:27:29.209Z,2.20
2018-09-06T02:29:57.897Z,2.17
2018-09-06T02:32:27.560Z,2.40
2018-09-06T02:34:56.260Z,2.73
2018-09-06T02:37:24.948Z,2.60
2018-09-06T02:39:53.625Z,2.60
2018-09-06T02:42:22.476Z,2.27
2018-09-06T02:44:51.195Z,2.00
2018-09-06T02:47:19.879Z,2.20
2018-09-06T02:49:53.640Z,2.40
2018-09-06T02:52:22.440Z,2.47
2018-09-06T02:54:51.108Z,2.50
2018-09-06T02:57:19.788Z,2.40
2018-09-06T02:59:48.459Z,2.27
2018-09-06T03:02:17.204Z,2.80
2018-09-06T03:04:45.912Z,2.50
2018-09-06T03:07:14.580Z,2.67
2018-09-06T03:09:43.293Z,2.37
2018-09-06T03:12:12.125Z,2.50
2018-09-06T03:14:40.847Z,2.10
2018-09-06T03:17:09.557Z,2.30
2018-09-06T03:19:38.359Z,2.33
2018-09-06T03:22:07.020Z,2.40
2018-09-06T03:24:35.746Z,2.40
2018-09-06T03:27:04.413Z,2.37
2018-09-06T03:29:33.088Z,2.30
2018-09-06T03:32:01.767Z,2.33
2018-09-06T03:34:30.469Z,2.30
2018-09-06T03:36:59.195Z,2.87
2018-09-06T03:39:27.875Z,2.87
2018-09-06T03:41:56.571Z,2.30
2018-09-06T03:44:25.245Z,2.37
2018-09-06T03:46:53.944Z,2.00
2018-09-06T03:49:22.621Z,2.60
2018-09-06T03:51:51.378Z,2.60
2018-09-06T03:54:20.076Z,2.30
2018-09-06T03:56:48.800Z,2.50
2018-09-06T03:59:17.482Z,2.47
2018-09-06T04:01:46.145Z,2.30
2018-09-06T04:04:14.804Z,2.53
2018-09-06T04:06:43.491Z,2.40
2018-09-06T04:09:12.322Z,2.70
2018-09-06T04:11:41.158Z,2.30
2018-09-06T04:14:09.885Z,2.30
2018-09-06T04:16:38.616Z,2.57
2018-09-06T04:19:07.628Z,2.47
2018-09-06T04:21:36.346Z,2.23
2018-09-06T04:24:05.039Z,2.50
2018-09-06T04:26:33.715Z,2.53
2018-09-06T04:29:02.420Z,2.60
2018-09-06T04:31:31.264Z,2.73
2018-09-06T04:34:00.012Z,2.43
2018-09-06T04:36:28.732Z,2.40
2018-09-06T04:38:57.486Z,2.70
2018-09-06T04:41:26.243Z,2.30
2018-09-06T04:43:55.031Z,2.27
2018-09-06T04:46:23.749Z,2.20
2018-09-06T04:48:52.463Z,2.30
2018-09-06T04:51:21.200Z,2.50
2018-09-06T04:53:49.890Z,2.30
2018-09-06T04:56:18.572Z,2.27
2018-09-06T04:58:47.361Z,2.40
2018-09-06T05:01:16.033Z,2.83
2018-09-06T05:03:44.695Z,2.70
2018-09-06T05:06:13.567Z,2.10
2018-09-06T05:08:42.254Z,2.30
2018-09-06T05:11:11.008Z,2.40
2018-09-06T05:13:39.720Z,2.73
2018-09-06T05:16:08.418Z,2.90
2018-09-06T05:18:37.208Z,2.63
2018-09-06T05:21:05.967Z,2.63
2018-09-06T05:23:34.643Z,2.30
2018-09-06T05:26:03.327Z,2.93
2018-09-06T05:28:32.005Z,2.33
2018-09-06T05:31:00.656Z,2.80
2018-09-06T05:33:29.361Z,2.60
2018-09-06T05:35:58.715Z,2.37
2018-09-06T05:38:27.402Z,2.30
2018-09-06T05:40:56.093Z,2.53
2018-09-06T05:43:24.856Z,2.43
2018-09-06T05:45:53.536Z,2.30
2018-09-06T05:48:22.284Z,2.60
2018-09-06T05:50:51.018Z,2.40
2018-09-06T05:53:20.164Z,2.53
2018-09-06T05:55:48.944Z,2.40
2018-09-06T05:58:17.669Z,2.60
2018-09-06T06:00:48.481Z,2.60
2018-09-06T06:03:17.311Z,2.70
2018-09-06T06:05:45.984Z,2.80
2018-09-06T06:08:25.765Z,3.07
2018-09-06T06:10:54.424Z,2.60
2018-09-06T06:13:23.222Z,2.77
2018-09-06T06:15:51.989Z,2.47
2018-09-06T06:18:20.673Z,2.40
2018-09-06T06:20:49.405Z,2.63
2018-09-06T06:23:18.107Z,2.83
2018-09-06T06:25:46.817Z,2.57
2018-09-06T06:28:15.852Z,3.20
2018-09-06T06:30:44.587Z,3.00
2018-09-06T06:33:13.269Z,2.67
2018-09-06T06:35:41.965Z,2.60
2018-09-06T06:38:10.660Z,2.63
2018-09-06T06:40:39.352Z,2.87
2018-09-06T06:43:08.085Z,3.10
2018-09-06T06:45:36.784Z,2.40
2018-09-06T06:48:05.521Z,2.43
2018-09-06T06:50:34.276Z,3.10
2018-09-06T06:53:02.968Z,2.93
2018-09-06T06:55:31.664Z,2.70
2018-09-06T06:58:00.340Z,3.37
2018-09-06T07:00:29.173Z,3.10
2018-09-06T07:03:06.689Z,3.40
2018-09-06T07:05:35.380Z,3.40
2018-09-06T07:08:04.085Z,3.67
2018-09-06T07:10:32.787Z,3.23
2018-09-06T07:13:01.480Z,3.20
2018-09-06T07:15:30.139Z,3.30
2018-09-06T07:17:58.832Z,3.93
2018-09-06T07:20:27.472Z,3.17
2018-09-06T07:22:56.189Z,3.47
2018-09-06T07:25:24.884Z,3.43
2018-09-06T07:27:53.531Z,3.53
2018-09-06T07:30:22.321Z,4.20
2018-09-06T07:32:51.002Z,3.50
2018-09-06T07:35:20.931Z,3.37
2018-09-06T07:37:49.687Z,3.47
2018-09-06T07:40:18.361Z,3.80
2018-09-06T07:42:47.103Z,3.70
2018-09-06T07:45:15.799Z,3.63
2018-09-06T07:47:44.509Z,4.00
2018-09-06T07:50:13.700Z,3.87
2018-09-06T07:52:42.384Z,3.90
2018-09-06T07:55:11.091Z,3.70
2018-09-06T07:57:40.558Z,3.67
2018-09-06T08:00:09.281Z,3.83
2018-09-06T08:02:38.583Z,2.37
2018-09-06T08:05:07.364Z,2.93
2018-09-06T08:07:36.046Z,1.63
2018-09-06T08:10:04.831Z,1.27
2018-09-06T08:12:33.511Z,1.73
2018-09-06T08:15:02.192Z,1.73
2018-09-06T08:17:30.851Z,1.57
2018-09-06T08:19:59.587Z,1.60
2018-09-06T08:22:28.256Z,1.20
2018-09-06T08:24:56.920Z,1.30
2018-09-06T08:27:26.235Z,1.40
2018-09-06T08:29:54.895Z,1.67
2018-09-06T08:32:23.676Z,1.30
2018-09-06T08:35:03.175Z,1.63
2018-09-06T08:37:31.931Z,1.33
2018-09-06T08:40:00.620Z,1.63
2018-09-06T08:42:29.413Z,1.40
2018-09-06T08:44:58.113Z,1.20
2018-09-06T08:47:26.881Z,1.27
2018-09-06T08:49:55.495Z,1.50
2018-09-06T08:52:24.366Z,1.30
2018-09-06T08:54:53.039Z,1.87
2018-09-06T08:57:21.876Z,1.47
2018-09-06T08:59:50.604Z,1.50
2018-09-06T09:02:19.466Z,1.30
2018-09-06T09:04:48.047Z,1.17
2018-09-06T09:07:16.817Z,1.33
2018-09-06T09:09:45.513Z,1.43
2018-09-06T09:12:14.249Z,1.80
2018-09-06T09:14:42.973Z,1.50
2018-09-06T09:17:11.653Z,1.67
2018-09-06T09:19:40.412Z,1.80
2018-09-06T09:22:09.215Z,1.90
2018-09-06T09:24:37.885Z,2.00
2018-09-06T09:27:06.980Z,1.37
2018-09-06T09:29:35.715Z,1.73
2018-09-06T09:32:04.419Z,0.97
2018-09-06T09:34:33.156Z,1.30
2018-09-06T09:37:01.855Z,2.63
2018-09-06T09:39:30.601Z,1.63
2018-09-06T09:41:59.327Z,1.40
2018-09-06T09:44:28.026Z,1.23
2018-09-06T09:49:24.845Z,1.47
2018-09-06T09:51:53.580Z,1.77
2018-09-06T09:54:22.332Z,1.70
2018-09-06T09:56:51.169Z,1.83
2018-09-06T09:59:19.831Z,2.10
2018-09-06T10:01:53.756Z,1.53
2018-09-06T10:04:27.629Z,1.90
2018-09-06T10:07:01.387Z,1.77
2018-09-06T10:09:30.106Z,1.47
2018-09-06T10:11:58.883Z,1.47
2018-09-06T10:14:27.640Z,1.70
2018-09-06T10:16:56.349Z,1.23
2018-09-06T10:19:25.077Z,1.50
2018-09-06T10:21:53.787Z,1.20
2018-09-06T10:24:22.555Z,1.07
2018-09-06T10:26:51.428Z,1.20
2018-09-06T10:29:20.291Z,0.93
2018-09-06T10:31:48.998Z,1.10
2018-09-06T10:34:17.795Z,1.20
2018-09-06T10:36:46.541Z,1.67
2018-09-06T10:39:15.334Z,1.77
2018-09-06T10:41:44.046Z,1.77
2018-09-06T10:44:12.797Z,1.10
2018-09-06T10:46:41.498Z,1.47
2018-09-06T10:49:10.220Z,1.53
2018-09-06T10:51:38.898Z,1.63
2018-09-06T10:54:07.592Z,1.40
2018-09-06T10:56:36.332Z,1.90
2018-09-06T10:59:05.058Z,1.23
2018-09-06T11:01:33.826Z,1.33
2018-09-06T11:04:02.524Z,1.57
2018-09-06T11:06:31.214Z,1.40
2018-09-06T11:08:59.954Z,1.40
2018-09-06T11:11:28.620Z,1.90
2018-09-06T11:13:57.306Z,2.03
2018-09-06T11:16:26.080Z,2.37
2018-09-06T11:18:54.816Z,1.13
2018-09-06T11:21:24.292Z,1.10
2018-09-06T11:23:52.975Z,1.30
2018-09-06T11:26:22.296Z,1.53
2018-09-06T11:28:50.977Z,2.00
2018-09-06T11:31:19.695Z,1.57
2018-09-06T11:33:48.416Z,1.67
2018-09-06T11:36:17.088Z,2.30
2018-09-06T11:38:45.828Z,2.10
2018-09-06T11:41:14.518Z,1.80
2018-09-06T11:43:43.326Z,1.87
2018-09-06T11:46:12.012Z,1.73
2018-09-06T11:48:40.736Z,1.80
2018-09-06T11:51:09.800Z,1.70
2018-09-06T11:53:38.593Z,1.73
2018-09-06T11:56:07.578Z,1.73
2018-09-06T11:58:36.993Z,1.67
2018-09-06T12:01:05.790Z,1.77
2018-09-06T12:03:34.580Z,1.77
2018-09-06T12:06:03.301Z,1.40
2018-09-06T12:08:32.030Z,1.50
2018-09-06T12:11:00.745Z,1.70
2018-09-06T12:13:29.443Z,1.60
2018-09-06T12:15:58.139Z,1.50
2018-09-06T12:18:27.008Z,1.50
2018-09-06T12:20:55.752Z,1.47
2018-09-06T12:23:24.477Z,1.83
2018-09-06T12:25:53.318Z,1.67
2018-09-06T12:28:22.427Z,1.50
2018-09-06T12:30:51.402Z,1.40
2018-09-06T12:33:21.473Z,1.27
2018-09-06T12:35:50.678Z,1.33
2018-09-06T12:38:19.697Z,1.67
2018-09-06T12:40:48.499Z,1.20
2018-09-06T12:43:17.788Z,1.13
2018-09-06T12:45:46.616Z,1.50
2018-09-06T12:48:15.380Z,1.30
2018-09-06T12:50:44.180Z,1.13
2018-09-06T12:53:12.944Z,1.63
2018-09-06T12:55:41.750Z,1.80
2018-09-06T12:58:10.563Z,1.70
2018-09-06T13:00:39.283Z,1.60
2018-09-06T13:03:08.082Z,1.40
2018-09-06T13:05:37.005Z,1.80
2018-09-06T13:08:05.942Z,1.90
2018-09-06T13:10:34.676Z,1.97
2018-09-06T13:13:03.440Z,2.00
2018-09-06T13:15:32.362Z,1.90
2018-09-06T13:18:01.192Z,1.70
2018-09-06T13:20:30.020Z,1.90
2018-09-06T13:22:59.766Z,1.57
2018-09-06T13:25:28.592Z,1.63
2018-09-06T13:27:57.409Z,1.50
2018-09-06T13:30:26.168Z,1.60
2018-09-06T13:32:54.898Z,1.57
2018-09-06T13:35:23.792Z,2.10
2018-09-06T13:37:52.699Z,2.10
2018-09-06T13:40:21.527Z,2.33
2018-09-06T13:42:50.223Z,3.70
2018-09-06T13:45:18.964Z,6.13
2018-09-06T13:47:47.668Z,6.20
2018-09-06T13:50:16.342Z,3.40
2018-09-06T13:52:45.046Z,2.93
2018-09-06T13:55:13.716Z,3.70
2018-09-06T13:57:42.412Z,4.10
2018-09-06T14:00:11.944Z,3.20
2018-09-06T14:02:41.511Z,3.03
2018-09-06T14:05:10.396Z,3.47
2018-09-06T14:07:39.076Z,2.57
2018-09-06T14:10:07.856Z,2.63
2018-09-06T14:12:36.525Z,7.93
2018-09-06T14:15:05.296Z,5.17
2018-09-06T14:17:34.006Z,3.90
2018-09-06T14:20:02.697Z,4.67
2018-09-06T14:22:31.446Z,3.17
2018-09-06T14:25:00.139Z,3.53
2018-09-06T14:27:28.828Z,3.47
2018-09-06T14:29:57.529Z,3.27
2018-09-06T14:32:26.199Z,3.73
2018-09-06T14:34:54.919Z,2.50
2018-09-06T14:37:23.605Z,2.47
2018-09-06T14:39:52.277Z,3.33
2018-09-06T14:42:21.011Z,2.30
2018-09-06T14:44:49.783Z,2.93
2018-09-06T14:47:18.467Z,3.00
2018-09-06T14:49:47.220Z,2.90
2018-09-06T14:52:16.084Z,2.60
2018-09-06T14:54:44.799Z,2.70
2018-09-06T14:57:13.643Z,2.60
2018-09-06T14:59:42.463Z,2.80
2018-09-06T15:02:11.348Z,3.10
2018-09-06T15:04:40.147Z,2.60
2018-09-06T15:07:08.849Z,2.67
2018-09-06T15:09:38.480Z,2.20
2018-09-06T15:12:07.573Z,2.80
2018-09-06T15:14:36.268Z,2.60
2018-09-06T15:17:05.168Z,3.57
2018-09-06T15:19:33.982Z,2.93
2018-09-06T15:22:02.743Z,3.10
2018-09-06T15:24:31.475Z,2.87
2018-09-06T15:27:00.275Z,2.63
2018-09-06T15:29:28.995Z,3.67
2018-09-06T15:31:58.035Z,2.93
2018-09-06T15:34:26.769Z,3.00
2018-09-06T15:36:55.554Z,3.20
2018-09-06T15:39:24.387Z,2.37
2018-09-06T15:41:53.146Z,3.03
2018-09-06T15:44:22.601Z,2.83
2018-09-06T15:46:51.408Z,2.83
2018-09-06T15:49:22.148Z,2.90
2018-09-06T15:51:50.910Z,3.50
2018-09-06T15:54:19.593Z,2.73
2018-09-06T15:56:48.277Z,3.40
2018-09-06T15:59:17.017Z,2.77
2018-09-06T16:01:45.841Z,2.67
2018-09-06T16:04:14.730Z,3.10
2018-09-06T16:06:43.480Z,3.13
2018-09-06T16:09:12.181Z,3.37
2018-09-06T16:11:40.865Z,3.77
2018-09-06T16:14:09.735Z,3.83
2018-09-06T16:16:38.589Z,4.33
2018-09-06T16:19:07.279Z,4.17
2018-09-06T16:21:35.977Z,3.17
2018-09-06T16:24:04.849Z,3.50
2018-09-06T16:26:33.608Z,4.03
2018-09-06T16:29:02.313Z,4.10
2018-09-06T16:31:31.261Z,3.50
2018-09-06T16:33:59.951Z,3.50
2018-09-06T16:36:28.659Z,3.10
2018-09-06T16:38:57.390Z,3.30
2018-09-06T16:41:26.128Z,2.93
2018-09-06T16:43:54.847Z,4.20
2018-09-06T16:46:23.639Z,3.60
2018-09-06T16:48:52.656Z,4.00
2018-09-06T16:51:21.431Z,4.13
2018-09-06T16:53:50.160Z,4.23
2018-09-06T16:56:19.630Z,4.17
2018-09-06T16:58:48.393Z,3.10
2018-09-06T17:01:17.310Z,1.47
2018-09-06T17:03:46.237Z,1.03
2018-09-06T17:06:14.957Z,1.23
2018-09-06T17:08:43.828Z,1.20
2018-09-06T17:11:12.708Z,1.00
2018-09-06T17:13:41.557Z,1.33
2018-09-06T17:16:10.364Z,1.40
2018-09-06T17:18:39.217Z,1.47
2018-09-06T17:21:08.071Z,2.10
2018-09-06T17:23:36.961Z,2.03
2018-09-06T17:26:05.770Z,1.90
2018-09-06T17:28:34.525Z,2.00
2018-09-06T17:31:03.320Z,1.97
2018-09-06T17:33:32.292Z,2.10
2018-09-06T17:36:01.116Z,2.53
2018-09-06T17:38:29.972Z,2.47
2018-09-06T17:40:58.775Z,2.63
2018-09-06T17:43:27.465Z,2.97
2018-09-06T17:45:56.252Z,2.30
2018-09-06T17:48:25.045Z,1.77
2018-09-06T17:50:53.969Z,2.00
2018-09-06T17:53:22.876Z,1.90
2018-09-06T17:55:51.722Z,2.00
2018-09-06T17:58:20.555Z,1.83
2018-09-06T18:01:52.208Z,1.80
2018-09-06T18:04:20.923Z,1.37
2018-09-06T18:06:50.005Z,1.63
2018-09-06T18:09:18.986Z,1.60
2018-09-06T18:11:47.902Z,1.40
2018-09-06T18:14:16.749Z,1.80
2018-09-06T18:16:45.695Z,1.90
2018-09-06T18:19:14.631Z,2.00
2018-09-06T18:21:43.425Z,1.67
2018-09-06T18:24:12.537Z,1.87
2018-09-06T18:26:41.407Z,1.43
2018-09-06T18:29:10.153Z,1.20
2018-09-06T18:31:38.893Z,1.30
2018-09-06T18:34:07.765Z,1.20
2018-09-06T18:36:36.632Z,1.10
2018-09-06T18:39:07.026Z,1.17
2018-09-06T18:41:35.899Z,1.10
2018-09-06T18:44:04.882Z,1.60
2018-09-06T18:46:33.536Z,1.60
2018-09-06T18:49:02.268Z,1.00
2018-09-06T18:51:30.981Z,1.30
2018-09-06T18:53:59.742Z,1.00
2018-09-06T18:56:28.508Z,1.50
2018-09-06T18:58:57.219Z,1.23
2018-09-06T19:01:25.887Z,1.83
2018-09-06T19:03:54.539Z,1.40
2018-09-06T19:06:23.299Z,1.30
2018-09-06T19:08:51.976Z,1.00
2018-09-06T19:11:21.129Z,1.17
2018-09-06T19:13:49.873Z,1.20
2018-09-06T19:16:18.653Z,1.50
2018-09-06T19:18:47.313Z,1.30
2018-09-06T19:21:16.009Z,0.90
2018-09-06T19:23:44.679Z,0.90
2018-09-06T19:26:13.413Z,0.70
2018-09-06T19:28:42.062Z,1.00
2018-09-06T19:31:10.805Z,1.10
2018-09-06T19:33:39.504Z,0.77
2018-09-06T19:36:08.326Z,0.47
2018-09-06T19:38:36.977Z,1.00
2018-09-06T19:41:05.751Z,0.50
2018-09-06T19:43:34.429Z,0.63
2018-09-06T19:46:03.125Z,0.80
2018-09-06T19:48:31.807Z,1.13
2018-09-06T19:51:00.521Z,0.80
2018-09-06T19:53:29.265Z,1.00
2018-09-06T19:55:57.961Z,0.90
2018-09-06T19:58:26.612Z,0.80
2018-09-06T20:00:55.287Z,1.17
2018-09-06T20:03:24.049Z,0.80
2018-09-06T20:05:52.735Z,0.83
2018-09-06T20:08:21.563Z,0.90
2018-09-06T20:10:50.253Z,0.90
2018-09-06T20:13:19.020Z,0.80
2018-09-06T20:15:47.840Z,0.80
2018-09-06T20:18:16.542Z,1.00
2018-09-06T20:20:45.240Z,0.80
2018-09-06T20:23:13.888Z,1.10
2018-09-06T20:25:42.669Z,1.13
2018-09-06T20:28:11.420Z,1.00
2018-09-06T20:30:40.024Z,1.00
2018-09-06T20:33:08.720Z,1.13
2018-09-06T20:35:37.384Z,1.03
2018-09-06T20:38:06.079Z,0.83
2018-09-06T20:40:34.759Z,0.93
2018-09-06T20:43:03.653Z,0.80
2018-09-06T20:45:32.365Z,1.10
2018-09-06T20:48:01.069Z,1.17
2018-09-06T20:50:29.769Z,1.10
2018-09-06T20:52:58.469Z,1.17
2018-09-06T20:55:27.159Z,1.30
2018-09-06T20:57:55.831Z,1.00
2018-09-06T21:00:24.495Z,1.37
2018-09-06T21:02:53.486Z,1.20
2018-09-06T21:05:22.344Z,1.13
2018-09-06T21:07:51.084Z,1.10
2018-09-06T21:10:19.818Z,1.03
2018-09-06T21:12:48.511Z,1.20
2018-09-06T21:15:17.200Z,1.00
2018-09-06T21:17:45.906Z,1.33
2018-09-06T21:20:14.599Z,1.13
2018-09-06T21:22:43.292Z,1.10
2018-09-06T21:25:11.984Z,1.60
2018-09-06T21:27:40.696Z,1.87
2018-09-06T21:30:09.441Z,1.20
2018-09-06T21:32:38.071Z,1.43
2018-09-06T21:35:06.925Z,1.27
2018-09-06T21:37:36.105Z,1.57
2018-09-06T21:40:05.083Z,1.37
2018-09-06T21:42:33.759Z,1.20
2018-09-06T21:45:02.468Z,1.30
2018-09-06T21:47:31.148Z,1.37
2018-09-06T21:49:59.802Z,1.57
2018-09-06T21:52:28.475Z,1.40
2018-09-06T21:54:57.169Z,1.50
2018-09-06T21:57:25.883Z,1.60
2018-09-06T21:59:54.592Z,1.53
2018-09-06T22:02:28.518Z,1.77
2018-09-06T22:04:57.238Z,1.53
2018-09-06T22:07:26.723Z,1.90
2018-09-06T22:09:55.621Z,1.40
2018-09-06T22:12:24.476Z,1.40
2018-09-06T22:14:53.280Z,1.53
2018-09-06T22:17:22.160Z,1.50
2018-09-06T22:19:51.513Z,1.50
2018-09-06T22:22:20.377Z,1.17
2018-09-06T22:24:49.924Z,1.40
2018-09-06T22:27:19.380Z,1.40
2018-09-06T22:29:48.516Z,1.37
2018-09-06T22:32:17.367Z,1.63
2018-09-06T22:34:48.187Z,1.20
2018-09-06T22:37:16.889Z,1.70
2018-09-06T22:39:45.531Z,1.60
2018-09-06T22:42:14.252Z,1.70
2018-09-06T22:44:43.023Z,1.50
2018-09-06T22:47:11.759Z,1.73
2018-09-06T22:49:40.524Z,1.87
2018-09-06T22:52:09.415Z,1.40
2018-09-06T22:54:38.071Z,1.47
2018-09-06T22:57:07.515Z,1.63
2018-09-06T22:59:36.202Z,1.40
2018-09-06T23:02:04.872Z,1.77
2018-09-06T23:04:33.615Z,1.63
2018-09-06T23:07:02.395Z,1.50
2018-09-06T23:09:31.195Z,1.90
2018-09-06T23:12:00.579Z,1.50
2018-09-06T23:14:29.451Z,2.03
2018-09-06T23:16:58.616Z,1.60
2018-09-06T23:19:27.432Z,1.70
2018-09-06T23:21:56.219Z,1.90
2018-09-06T23:24:25.511Z,1.47
2018-09-06T23:26:54.187Z,1.70
2018-09-06T23:29:23.755Z,1.70
2018-09-06T23:31:53.118Z,1.70
2018-09-06T23:34:22.410Z,1.33
2018-09-06T23:36:51.187Z,1.33
2018-09-06T23:39:20.011Z,1.37
2018-09-06T23:41:49.613Z,1.60
2018-09-06T23:44:18.427Z,2.30
2018-09-06T23:46:47.900Z,1.40
2018-09-06T23:49:16.830Z,1.50
2018-09-06T23:51:45.521Z,1.47
2018-09-06T23:54:16.109Z,1.70
2018-09-06T23:56:45.401Z,1.37
2018-09-06T23:59:14.145Z,1.97
